sensor_id;sensor_type;location;lat;lon;timestamp;temperature;humidity
38359;DHT22;42072;48.044;14.416;2024-03-02T00:01:20;7.70;94.10
38359;DHT22;42072;48.044;14.416;2024-03-02T00:03:48;7.80;90.40
38359;DHT22;42072;48.044;14.416;2024-03-02T00:06:15;7.70;60.40
38359;DHT22;42072;48.044;14.416;2024-03-02T00:08:46;7.70;38.50
38359;DHT22;42072;48.044;14.416;2024-03-02T00:11:13;7.70;38.70
38359;DHT22;42072;48.044;14.416;2024-03-02T00:13:42;7.70;32.00
38359;DHT22;42072;48.044;14.416;2024-03-02T00:16:09;7.60;32.80
38359;DHT22;42072;48.044;14.416;2024-03-02T00:18:38;7.60;33.00
38359;DHT22;42072;48.044;14.416;2024-03-02T00:21:05;7.50;31.50
38359;DHT22;42072;48.044;14.416;2024-03-02T00:23:36;7.50;38.80
38359;DHT22;42072;48.044;14.416;2024-03-02T00:26:04;7.40;53.60
38359;DHT22;42072;48.044;14.416;2024-03-02T00:28:35;7.40;69.50
38359;DHT22;42072;48.044;14.416;2024-03-02T00:31:06;7.40;90.00
38359;DHT22;42072;48.044;14.416;2024-03-02T00:33:42;7.40;81.90
38359;DHT22;42072;48.044;14.416;2024-03-02T00:36:11;7.30;90.30
38359;DHT22;42072;48.044;14.416;2024-03-02T00:38:51;7.30;99.10
38359;DHT22;42072;48.044;14.416;2024-03-02T00:41:25;7.40;99.90
38359;DHT22;42072;48.044;14.416;2024-03-02T00:46:21;7.30;99.90
38359;DHT22;42072;48.044;14.416;2024-03-02T00:48:57;7.30;99.90
38359;DHT22;42072;48.044;14.416;2024-03-02T00:51:25;7.30;99.90
38359;DHT22;42072;48.044;14.416;2024-03-02T00:53:53;7.30;99.90
38359;DHT22;42072;48.044;14.416;2024-03-02T00:56:24;7.30;99.90
38359;DHT22;42072;48.044;14.416;2024-03-02T00:58:52;7.20;99.90
38359;DHT22;42072;48.044;14.416;2024-03-02T01:01:19;7.20;99.90
38359;DHT22;42072;48.044;14.416;2024-03-02T01:03:47;7.10;99.90
38359;DHT22;42072;48.044;14.416;2024-03-02T01:06:15;7.10;99.90
38359;DHT22;42072;48.044;14.416;2024-03-02T01:08:42;7.10;99.90
38359;DHT22;42072;48.044;14.416;2024-03-02T01:11:10;7.20;99.90
38359;DHT22;42072;48.044;14.416;2024-03-02T01:13:37;7.20;99.90
38359;DHT22;42072;48.044;14.416;2024-03-02T01:16:04;7.20;99.90
38359;DHT22;42072;48.044;14.416;2024-03-02T01:18:32;7.20;99.90
38359;DHT22;42072;48.044;14.416;2024-03-02T01:20:59;7.20;99.90
38359;DHT22;42072;48.044;14.416;2024-03-02T01:23:26;7.30;99.90
38359;DHT22;42072;48.044;14.416;2024-03-02T01:25:53;7.30;99.90
38359;DHT22;42072;48.044;14.416;2024-03-02T01:28:21;7.20;99.90
38359;DHT22;42072;48.044;14.416;2024-03-02T01:30:49;7.20;99.90
38359;DHT22;42072;48.044;14.416;2024-03-02T01:33:17;7.20;99.90
38359;DHT22;42072;48.044;14.416;2024-03-02T01:35:45;7.10;99.90
38359;DHT22;42072;48.044;14.416;2024-03-02T01:38:12;7.10;99.90
38359;DHT22;42072;48.044;14.416;2024-03-02T01:40:39;7.10;99.90
38359;DHT22;42072;48.044;14.416;2024-03-02T01:43:07;7.00;99.90
38359;DHT22;42072;48.044;14.416;2024-03-02T01:45:34;7.00;99.90
38359;DHT22;42072;48.044;14.416;2024-03-02T01:48:06;7.00;99.90
38359;DHT22;42072;48.044;14.416;2024-03-02T01:50:34;7.00;99.90
38359;DHT22;42072;48.044;14.416;2024-03-02T01:53:02;7.00;99.90
38359;DHT22;42072;48.044;14.416;2024-03-02T01:55:30;7.00;99.90
38359;DHT22;42072;48.044;14.416;2024-03-02T01:57:57;7.00;99.90
38359;DHT22;42072;48.044;14.416;2024-03-02T02:00:25;7.00;99.90
38359;DHT22;42072;48.044;14.416;2024-03-02T02:02:54;7.00;99.90
38359;DHT22;42072;48.044;14.416;2024-03-02T02:05:22;7.00;99.90
38359;DHT22;42072;48.044;14.416;2024-03-02T02:07:49;6.90;99.90
38359;DHT22;42072;48.044;14.416;2024-03-02T02:10:17;7.00;99.90
38359;DHT22;42072;48.044;14.416;2024-03-02T02:12:44;6.90;99.90
38359;DHT22;42072;48.044;14.416;2024-03-02T02:17:51;6.80;99.90
38359;DHT22;42072;48.044;14.416;2024-03-02T02:20:18;6.80;99.90
38359;DHT22;42072;48.044;14.416;2024-03-02T02:23:19;6.80;99.90
38359;DHT22;42072;48.044;14.416;2024-03-02T02:25:40;6.80;99.90
38359;DHT22;42072;48.044;14.416;2024-03-02T02:28:07;6.80;99.90
38359;DHT22;42072;48.044;14.416;2024-03-02T02:30:34;6.80;99.90
38359;DHT22;42072;48.044;14.416;2024-03-02T02:33:02;6.80;99.90
38359;DHT22;42072;48.044;14.416;2024-03-02T02:35:29;6.70;99.90
38359;DHT22;42072;48.044;14.416;2024-03-02T02:37:57;6.70;99.90
38359;DHT22;42072;48.044;14.416;2024-03-02T02:40:26;6.70;99.90
38359;DHT22;42072;48.044;14.416;2024-03-02T02:42:53;6.70;99.90
38359;DHT22;42072;48.044;14.416;2024-03-02T02:45:21;6.70;99.90
38359;DHT22;42072;48.044;14.416;2024-03-02T02:47:49;6.80;99.90
38359;DHT22;42072;48.044;14.416;2024-03-02T02:50:16;6.80;99.90
38359;DHT22;42072;48.044;14.416;2024-03-02T02:52:44;6.80;99.90
38359;DHT22;42072;48.044;14.416;2024-03-02T02:55:12;6.80;99.90
38359;DHT22;42072;48.044;14.416;2024-03-02T02:57:40;6.80;99.90
38359;DHT22;42072;48.044;14.416;2024-03-02T03:00:14;6.80;99.90
38359;DHT22;42072;48.044;14.416;2024-03-02T03:02:44;6.70;99.90
38359;DHT22;42072;48.044;14.416;2024-03-02T03:05:12;6.70;99.90
38359;DHT22;42072;48.044;14.416;2024-03-02T03:07:41;6.70;99.90
38359;DHT22;42072;48.044;14.416;2024-03-02T03:10:09;6.80;99.90
38359;DHT22;42072;48.044;14.416;2024-03-02T03:12:37;6.80;99.90
38359;DHT22;42072;48.044;14.416;2024-03-02T03:15:04;6.80;99.90
38359;DHT22;42072;48.044;14.416;2024-03-02T03:17:34;6.80;99.90
38359;DHT22;42072;48.044;14.416;2024-03-02T03:20:02;6.80;99.90
38359;DHT22;42072;48.044;14.416;2024-03-02T03:22:31;6.80;99.90
38359;DHT22;42072;48.044;14.416;2024-03-02T03:24:59;6.80;99.90
38359;DHT22;42072;48.044;14.416;2024-03-02T03:27:27;6.70;99.90
38359;DHT22;42072;48.044;14.416;2024-03-02T03:29:54;6.80;99.90
38359;DHT22;42072;48.044;14.416;2024-03-02T03:32:21;6.80;99.90
38359;DHT22;42072;48.044;14.416;2024-03-02T03:34:49;6.80;99.90
38359;DHT22;42072;48.044;14.416;2024-03-02T03:37:16;6.80;99.90
38359;DHT22;42072;48.044;14.416;2024-03-02T03:39:44;6.80;99.90
38359;DHT22;42072;48.044;14.416;2024-03-02T03:42:11;6.80;99.90
38359;DHT22;42072;48.044;14.416;2024-03-02T03:44:38;6.80;99.90
38359;DHT22;42072;48.044;14.416;2024-03-02T03:47:07;6.80;99.90
38359;DHT22;42072;48.044;14.416;2024-03-02T03:49:34;6.80;99.90
38359;DHT22;42072;48.044;14.416;2024-03-02T03:52:02;6.80;99.90
38359;DHT22;42072;48.044;14.416;2024-03-02T03:54:29;6.80;99.90
38359;DHT22;42072;48.044;14.416;2024-03-02T03:56:56;6.80;99.90
38359;DHT22;42072;48.044;14.416;2024-03-02T03:59:23;6.80;99.90
38359;DHT22;42072;48.044;14.416;2024-03-02T04:01:50;6.80;99.90
38359;DHT22;42072;48.044;14.416;2024-03-02T04:04:17;6.80;99.90
38359;DHT22;42072;48.044;14.416;2024-03-02T04:06:45;6.80;99.90
38359;DHT22;42072;48.044;14.416;2024-03-02T04:09:12;6.80;99.90
38359;DHT22;42072;48.044;14.416;2024-03-02T04:11:39;6.80;99.90
38359;DHT22;42072;48.044;14.416;2024-03-02T04:14:06;6.80;99.90
38359;DHT22;42072;48.044;14.416;2024-03-02T04:16:33;6.80;99.90
38359;DHT22;42072;48.044;14.416;2024-03-02T04:19:00;6.80;99.90
38359;DHT22;42072;48.044;14.416;2024-03-02T04:21:27;6.80;99.90
38359;DHT22;42072;48.044;14.416;2024-03-02T04:23:55;6.90;99.90
38359;DHT22;42072;48.044;14.416;2024-03-02T04:26:26;6.90;99.90
38359;DHT22;42072;48.044;14.416;2024-03-02T04:28:54;6.90;99.90
38359;DHT22;42072;48.044;14.416;2024-03-02T04:31:21;6.80;99.90
38359;DHT22;42072;48.044;14.416;2024-03-02T04:33:48;6.80;99.90
38359;DHT22;42072;48.044;14.416;2024-03-02T04:36:16;6.90;99.90
38359;DHT22;42072;48.044;14.416;2024-03-02T04:38:43;6.90;99.90
38359;DHT22;42072;48.044;14.416;2024-03-02T04:41:11;7.00;99.90
38359;DHT22;42072;48.044;14.416;2024-03-02T04:43:38;6.90;99.90
38359;DHT22;42072;48.044;14.416;2024-03-02T04:46:05;6.90;99.90
38359;DHT22;42072;48.044;14.416;2024-03-02T04:48:34;6.90;99.90
38359;DHT22;42072;48.044;14.416;2024-03-02T04:51:01;6.80;99.90
38359;DHT22;42072;48.044;14.416;2024-03-02T04:53:29;6.80;99.90
38359;DHT22;42072;48.044;14.416;2024-03-02T04:55:56;6.80;99.90
38359;DHT22;42072;48.044;14.416;2024-03-02T04:58:47;6.90;99.90
38359;DHT22;42072;48.044;14.416;2024-03-02T05:01:14;6.90;99.90
38359;DHT22;42072;48.044;14.416;2024-03-02T05:03:43;6.90;99.90
38359;DHT22;42072;48.044;14.416;2024-03-02T05:06:10;6.90;99.90
38359;DHT22;42072;48.044;14.416;2024-03-02T05:08:37;6.80;99.90
38359;DHT22;42072;48.044;14.416;2024-03-02T05:11:05;6.90;99.90
38359;DHT22;42072;48.044;14.416;2024-03-02T05:13:50;6.80;99.90
38359;DHT22;42072;48.044;14.416;2024-03-02T05:16:17;6.90;99.90
38359;DHT22;42072;48.044;14.416;2024-03-02T05:18:44;6.80;99.90
38359;DHT22;42072;48.044;14.416;2024-03-02T05:21:11;6.80;99.90
38359;DHT22;42072;48.044;14.416;2024-03-02T05:23:38;6.80;99.90
38359;DHT22;42072;48.044;14.416;2024-03-02T05:26:05;6.80;99.90
38359;DHT22;42072;48.044;14.416;2024-03-02T05:28:33;6.80;99.90
38359;DHT22;42072;48.044;14.416;2024-03-02T05:31:00;6.80;99.90
38359;DHT22;42072;48.044;14.416;2024-03-02T05:33:27;6.80;99.90
38359;DHT22;42072;48.044;14.416;2024-03-02T05:35:55;6.90;99.90
38359;DHT22;42072;48.044;14.416;2024-03-02T05:38:23;6.90;99.90
38359;DHT22;42072;48.044;14.416;2024-03-02T05:40:50;6.90;99.90
38359;DHT22;42072;48.044;14.416;2024-03-02T05:43:17;6.90;99.90
38359;DHT22;42072;48.044;14.416;2024-03-02T05:45:45;6.80;99.90
38359;DHT22;42072;48.044;14.416;2024-03-02T05:48:12;6.80;99.90
38359;DHT22;42072;48.044;14.416;2024-03-02T05:50:39;6.80;99.90
38359;DHT22;42072;48.044;14.416;2024-03-02T05:53:06;6.80;99.90
38359;DHT22;42072;48.044;14.416;2024-03-02T05:55:34;6.80;99.90
38359;DHT22;42072;48.044;14.416;2024-03-02T05:58:01;6.80;99.90
38359;DHT22;42072;48.044;14.416;2024-03-02T06:00:47;6.70;99.90
38359;DHT22;42072;48.044;14.416;2024-03-02T06:03:14;6.70;99.90
38359;DHT22;42072;48.044;14.416;2024-03-02T06:05:42;6.70;99.90
38359;DHT22;42072;48.044;14.416;2024-03-02T06:08:09;6.70;99.90
38359;DHT22;42072;48.044;14.416;2024-03-02T06:10:36;6.80;99.90
38359;DHT22;42072;48.044;14.416;2024-03-02T06:13:03;6.80;99.90
38359;DHT22;42072;48.044;14.416;2024-03-02T06:15:31;6.70;99.90
38359;DHT22;42072;48.044;14.416;2024-03-02T06:17:58;6.70;99.90
38359;DHT22;42072;48.044;14.416;2024-03-02T06:20:25;6.70;99.90
38359;DHT22;42072;48.044;14.416;2024-03-02T06:22:53;6.80;99.90
38359;DHT22;42072;48.044;14.416;2024-03-02T06:25:20;6.80;99.90
38359;DHT22;42072;48.044;14.416;2024-03-02T06:27:47;6.90;99.90
38359;DHT22;42072;48.044;14.416;2024-03-02T06:30:14;6.90;99.90
38359;DHT22;42072;48.044;14.416;2024-03-02T06:32:42;6.90;99.90
38359;DHT22;42072;48.044;14.416;2024-03-02T06:35:09;6.90;99.90
38359;DHT22;42072;48.044;14.416;2024-03-02T06:37:38;7.00;99.90
38359;DHT22;42072;48.044;14.416;2024-03-02T06:40:07;7.00;99.90
38359;DHT22;42072;48.044;14.416;2024-03-02T06:42:37;6.90;99.90
38359;DHT22;42072;48.044;14.416;2024-03-02T06:45:04;6.90;99.90
38359;DHT22;42072;48.044;14.416;2024-03-02T06:47:32;6.90;99.90
38359;DHT22;42072;48.044;14.416;2024-03-02T06:49:59;6.90;99.90
38359;DHT22;42072;48.044;14.416;2024-03-02T06:52:26;6.90;99.90
38359;DHT22;42072;48.044;14.416;2024-03-02T06:54:54;6.90;99.90
38359;DHT22;42072;48.044;14.416;2024-03-02T06:57:21;7.00;99.90
38359;DHT22;42072;48.044;14.416;2024-03-02T06:59:48;7.00;99.90
38359;DHT22;42072;48.044;14.416;2024-03-02T07:02:18;7.00;99.90
38359;DHT22;42072;48.044;14.416;2024-03-02T07:04:45;7.10;99.90
38359;DHT22;42072;48.044;14.416;2024-03-02T07:07:14;7.20;99.90
38359;DHT22;42072;48.044;14.416;2024-03-02T07:09:41;7.20;99.90
38359;DHT22;42072;48.044;14.416;2024-03-02T07:12:08;7.30;99.90
38359;DHT22;42072;48.044;14.416;2024-03-02T07:14:35;7.40;99.90
38359;DHT22;42072;48.044;14.416;2024-03-02T07:17:21;7.40;99.90
38359;DHT22;42072;48.044;14.416;2024-03-02T07:19:48;7.60;99.90
38359;DHT22;42072;48.044;14.416;2024-03-02T07:22:15;7.70;99.90
38359;DHT22;42072;48.044;14.416;2024-03-02T07:24:43;7.80;99.90
38359;DHT22;42072;48.044;14.416;2024-03-02T07:27:10;8.00;99.90
38359;DHT22;42072;48.044;14.416;2024-03-02T07:29:39;8.00;86.10
38359;DHT22;42072;48.044;14.416;2024-03-02T07:32:07;8.10;32.90
38359;DHT22;42072;48.044;14.416;2024-03-02T07:34:34;8.20;4.20
38359;DHT22;42072;48.044;14.416;2024-03-02T07:37:01;8.30;1.00
38359;DHT22;42072;48.044;14.416;2024-03-02T07:39:29;8.30;1.00
38359;DHT22;42072;48.044;14.416;2024-03-02T07:41:56;8.30;1.00
38359;DHT22;42072;48.044;14.416;2024-03-02T07:44:24;8.30;1.00
38359;DHT22;42072;48.044;14.416;2024-03-02T07:46:51;8.30;1.00
38359;DHT22;42072;48.044;14.416;2024-03-02T07:49:18;8.30;1.00
38359;DHT22;42072;48.044;14.416;2024-03-02T07:51:45;8.40;1.00
38359;DHT22;42072;48.044;14.416;2024-03-02T07:54:13;8.40;1.00
38359;DHT22;42072;48.044;14.416;2024-03-02T07:56:40;8.50;1.00
38359;DHT22;42072;48.044;14.416;2024-03-02T07:59:09;8.60;1.00
38359;DHT22;42072;48.044;14.416;2024-03-02T08:01:36;8.70;1.00
38359;DHT22;42072;48.044;14.416;2024-03-02T08:04:03;8.80;1.00
38359;DHT22;42072;48.044;14.416;2024-03-02T08:06:31;8.90;1.00
38359;DHT22;42072;48.044;14.416;2024-03-02T08:08:59;9.00;1.00
38359;DHT22;42072;48.044;14.416;2024-03-02T08:11:27;9.10;99.90
38359;DHT22;42072;48.044;14.416;2024-03-02T08:13:54;9.20;99.90
38359;DHT22;42072;48.044;14.416;2024-03-02T08:16:22;9.10;99.90
38359;DHT22;42072;48.044;14.416;2024-03-02T08:18:50;9.00;99.90
38359;DHT22;42072;48.044;14.416;2024-03-02T08:21:18;9.10;99.90
38359;DHT22;42072;48.044;14.416;2024-03-02T08:23:45;9.10;99.90
38359;DHT22;42072;48.044;14.416;2024-03-02T08:26:12;9.00;99.90
38359;DHT22;42072;48.044;14.416;2024-03-02T08:28:39;9.10;99.90
38359;DHT22;42072;48.044;14.416;2024-03-02T08:31:09;9.30;99.90
38359;DHT22;42072;48.044;14.416;2024-03-02T08:33:37;9.40;99.90
38359;DHT22;42072;48.044;14.416;2024-03-02T08:36:04;9.50;99.90
38359;DHT22;42072;48.044;14.416;2024-03-02T08:38:32;9.80;99.90
38359;DHT22;42072;48.044;14.416;2024-03-02T08:40:59;10.00;49.60
38359;DHT22;42072;48.044;14.416;2024-03-02T08:43:26;10.20;13.50
38359;DHT22;42072;48.044;14.416;2024-03-02T08:45:54;10.30;1.00
38359;DHT22;42072;48.044;14.416;2024-03-02T08:48:21;10.30;1.00
38359;DHT22;42072;48.044;14.416;2024-03-02T08:50:48;10.10;1.00
38359;DHT22;42072;48.044;14.416;2024-03-02T08:53:15;10.10;11.80
38359;DHT22;42072;48.044;14.416;2024-03-02T08:55:48;9.90;2.10
38359;DHT22;42072;48.044;14.416;2024-03-02T08:58:15;9.90;3.00
38359;DHT22;42072;48.044;14.416;2024-03-02T09:00:43;9.80;17.10
38359;DHT22;42072;48.044;14.416;2024-03-02T09:03:10;9.70;33.80
38359;DHT22;42072;48.044;14.416;2024-03-02T09:05:37;9.50;67.10
38359;DHT22;42072;48.044;14.416;2024-03-02T09:08:04;9.40;82.60
38359;DHT22;42072;48.044;14.416;2024-03-02T09:10:33;9.40;93.70
38359;DHT22;42072;48.044;14.416;2024-03-02T09:13:00;9.30;99.90
38359;DHT22;42072;48.044;14.416;2024-03-02T09:15:28;9.30;99.90
38359;DHT22;42072;48.044;14.416;2024-03-02T09:17:56;9.30;96.30
38359;DHT22;42072;48.044;14.416;2024-03-02T09:20:23;9.40;94.10
38359;DHT22;42072;48.044;14.416;2024-03-02T09:22:50;9.30;71.20
38359;DHT22;42072;48.044;14.416;2024-03-02T09:25:17;9.40;58.80
38359;DHT22;42072;48.044;14.416;2024-03-02T09:27:44;9.30;60.40
38359;DHT22;42072;48.044;14.416;2024-03-02T09:30:12;9.20;77.10
38359;DHT22;42072;48.044;14.416;2024-03-02T09:32:40;9.30;50.20
38359;DHT22;42072;48.044;14.416;2024-03-02T09:35:08;9.40;42.50
38359;DHT22;42072;48.044;14.416;2024-03-02T09:37:36;9.40;30.00
38359;DHT22;42072;48.044;14.416;2024-03-02T09:40:03;9.50;27.80
38359;DHT22;42072;48.044;14.416;2024-03-02T09:42:31;9.60;15.10
38359;DHT22;42072;48.044;14.416;2024-03-02T09:44:59;9.60;8.80
38359;DHT22;42072;48.044;14.416;2024-03-02T09:47:26;9.70;9.00
38359;DHT22;42072;48.044;14.416;2024-03-02T09:49:54;9.90;12.90
38359;DHT22;42072;48.044;14.416;2024-03-02T09:52:22;9.90;8.70
38359;DHT22;42072;48.044;14.416;2024-03-02T09:54:50;10.00;1.00
38359;DHT22;42072;48.044;14.416;2024-03-02T09:57:18;10.10;1.00
38359;DHT22;42072;48.044;14.416;2024-03-02T09:59:45;10.30;1.00
38359;DHT22;42072;48.044;14.416;2024-03-02T10:02:12;10.40;1.00
38359;DHT22;42072;48.044;14.416;2024-03-02T10:04:39;10.50;1.00
38359;DHT22;42072;48.044;14.416;2024-03-02T10:07:10;10.70;1.00
38359;DHT22;42072;48.044;14.416;2024-03-02T10:09:41;10.80;1.00
38359;DHT22;42072;48.044;14.416;2024-03-02T10:12:09;10.90;1.00
38359;DHT22;42072;48.044;14.416;2024-03-02T10:14:37;11.00;1.00
38359;DHT22;42072;48.044;14.416;2024-03-02T10:17:06;11.20;1.00
38359;DHT22;42072;48.044;14.416;2024-03-02T10:19:34;11.30;1.00
38359;DHT22;42072;48.044;14.416;2024-03-02T10:22:05;11.40;99.90
38359;DHT22;42072;48.044;14.416;2024-03-02T10:24:44;11.40;99.90
38359;DHT22;42072;48.044;14.416;2024-03-02T10:27:16;11.40;99.90
38359;DHT22;42072;48.044;14.416;2024-03-02T10:29:47;11.10;99.90
38359;DHT22;42072;48.044;14.416;2024-03-02T10:32:15;11.10;1.00
38359;DHT22;42072;48.044;14.416;2024-03-02T10:34:43;10.90;1.00
38359;DHT22;42072;48.044;14.416;2024-03-02T10:37:11;10.90;1.00
38359;DHT22;42072;48.044;14.416;2024-03-02T10:39:39;10.60;1.00
38359;DHT22;42072;48.044;14.416;2024-03-02T10:42:07;10.40;1.00
38359;DHT22;42072;48.044;14.416;2024-03-02T10:44:35;10.40;1.00
38359;DHT22;42072;48.044;14.416;2024-03-02T10:47:03;10.50;1.00
38359;DHT22;42072;48.044;14.416;2024-03-02T10:49:31;10.50;1.00
38359;DHT22;42072;48.044;14.416;2024-03-02T10:51:59;10.50;1.00
38359;DHT22;42072;48.044;14.416;2024-03-02T10:54:26;10.60;1.00
38359;DHT22;42072;48.044;14.416;2024-03-02T10:56:58;10.70;1.00
38359;DHT22;42072;48.044;14.416;2024-03-02T11:01:57;11.10;1.00
38359;DHT22;42072;48.044;14.416;2024-03-02T11:04:32;11.20;99.90
38359;DHT22;42072;48.044;14.416;2024-03-02T11:07:03;11.50;99.90
38359;DHT22;42072;48.044;14.416;2024-03-02T11:09:33;11.60;99.90
38359;DHT22;42072;48.044;14.416;2024-03-02T11:12:13;11.50;99.90
38359;DHT22;42072;48.044;14.416;2024-03-02T11:14:42;11.60;99.90
38359;DHT22;42072;48.044;14.416;2024-03-02T11:17:13;11.60;99.90
38359;DHT22;42072;48.044;14.416;2024-03-02T11:19:42;11.50;99.90
38359;DHT22;42072;48.044;14.416;2024-03-02T11:22:10;11.60;99.90
38359;DHT22;42072;48.044;14.416;2024-03-02T11:24:38;11.70;99.90
38359;DHT22;42072;48.044;14.416;2024-03-02T11:27:05;11.60;99.90
38359;DHT22;42072;48.044;14.416;2024-03-02T11:32:17;11.60;99.90
38359;DHT22;42072;48.044;14.416;2024-03-02T11:34:45;11.80;99.90
38359;DHT22;42072;48.044;14.416;2024-03-02T11:37:19;12.00;99.90
38359;DHT22;42072;48.044;14.416;2024-03-02T11:39:49;12.20;99.90
38359;DHT22;42072;48.044;14.416;2024-03-02T11:42:17;12.40;99.90
38359;DHT22;42072;48.044;14.416;2024-03-02T11:44:45;12.40;99.90
38359;DHT22;42072;48.044;14.416;2024-03-02T11:47:14;12.20;99.90
38359;DHT22;42072;48.044;14.416;2024-03-02T11:49:51;12.20;99.90
38359;DHT22;42072;48.044;14.416;2024-03-02T11:52:19;12.20;99.90
38359;DHT22;42072;48.044;14.416;2024-03-02T11:54:46;12.20;99.90
38359;DHT22;42072;48.044;14.416;2024-03-02T11:57:15;12.20;99.90
38359;DHT22;42072;48.044;14.416;2024-03-02T11:59:43;12.40;99.90
38359;DHT22;42072;48.044;14.416;2024-03-02T12:02:19;12.40;99.90
38359;DHT22;42072;48.044;14.416;2024-03-02T12:04:47;12.00;99.90
38359;DHT22;42072;48.044;14.416;2024-03-02T12:07:19;12.20;99.90
38359;DHT22;42072;48.044;14.416;2024-03-02T12:10:00;12.20;99.90
38359;DHT22;42072;48.044;14.416;2024-03-02T12:12:30;12.10;99.90
38359;DHT22;42072;48.044;14.416;2024-03-02T12:14:58;11.90;99.90
38359;DHT22;42072;48.044;14.416;2024-03-02T12:17:28;11.70;99.90
38359;DHT22;42072;48.044;14.416;2024-03-02T12:19:56;11.80;99.90
38359;DHT22;42072;48.044;14.416;2024-03-02T12:22:23;11.80;99.90
38359;DHT22;42072;48.044;14.416;2024-03-02T12:24:50;11.60;99.90
38359;DHT22;42072;48.044;14.416;2024-03-02T12:27:17;11.60;99.90
38359;DHT22;42072;48.044;14.416;2024-03-02T12:29:48;11.90;99.90
38359;DHT22;42072;48.044;14.416;2024-03-02T12:32:15;12.30;99.90
38359;DHT22;42072;48.044;14.416;2024-03-02T12:34:46;12.50;99.90
38359;DHT22;42072;48.044;14.416;2024-03-02T12:37:13;12.50;99.90
38359;DHT22;42072;48.044;14.416;2024-03-02T12:39:44;12.20;99.90
38359;DHT22;42072;48.044;14.416;2024-03-02T12:42:11;12.30;99.90
38359;DHT22;42072;48.044;14.416;2024-03-02T12:44:39;12.00;99.90
38359;DHT22;42072;48.044;14.416;2024-03-02T12:47:06;12.10;99.90
38359;DHT22;42072;48.044;14.416;2024-03-02T12:49:33;12.10;99.90
38359;DHT22;42072;48.044;14.416;2024-03-02T12:52:02;12.20;99.90
38359;DHT22;42072;48.044;14.416;2024-03-02T12:54:29;12.00;99.90
38359;DHT22;42072;48.044;14.416;2024-03-02T12:56:56;11.90;99.90
38359;DHT22;42072;48.044;14.416;2024-03-02T12:59:24;11.80;99.90
38359;DHT22;42072;48.044;14.416;2024-03-02T13:01:54;11.70;99.90
38359;DHT22;42072;48.044;14.416;2024-03-02T13:04:25;11.80;99.90
38359;DHT22;42072;48.044;14.416;2024-03-02T13:06:52;11.70;99.90
38359;DHT22;42072;48.044;14.416;2024-03-02T13:09:20;11.80;99.90
38359;DHT22;42072;48.044;14.416;2024-03-02T13:11:48;11.90;99.90
38359;DHT22;42072;48.044;14.416;2024-03-02T13:14:15;12.00;99.90
38359;DHT22;42072;48.044;14.416;2024-03-02T13:16:42;12.10;99.90
38359;DHT22;42072;48.044;14.416;2024-03-02T13:19:13;12.30;99.90
38359;DHT22;42072;48.044;14.416;2024-03-02T13:21:41;12.30;99.90
38359;DHT22;42072;48.044;14.416;2024-03-02T13:24:09;12.30;99.90
38359;DHT22;42072;48.044;14.416;2024-03-02T13:26:36;12.30;99.90
38359;DHT22;42072;48.044;14.416;2024-03-02T13:29:03;12.30;99.90
38359;DHT22;42072;48.044;14.416;2024-03-02T13:31:30;12.30;99.90
38359;DHT22;42072;48.044;14.416;2024-03-02T13:33:58;12.40;99.90
38359;DHT22;42072;48.044;14.416;2024-03-02T13:36:25;12.50;99.90
38359;DHT22;42072;48.044;14.416;2024-03-02T13:38:52;12.60;99.90
38359;DHT22;42072;48.044;14.416;2024-03-02T13:41:19;12.50;99.90
38359;DHT22;42072;48.044;14.416;2024-03-02T13:43:48;12.60;99.90
38359;DHT22;42072;48.044;14.416;2024-03-02T13:46:17;12.60;99.90
38359;DHT22;42072;48.044;14.416;2024-03-02T13:48:44;12.40;99.90
38359;DHT22;42072;48.044;14.416;2024-03-02T13:51:12;12.30;99.90
38359;DHT22;42072;48.044;14.416;2024-03-02T13:53:39;12.50;99.90
38359;DHT22;42072;48.044;14.416;2024-03-02T13:56:06;12.50;99.90
38359;DHT22;42072;48.044;14.416;2024-03-02T13:58:34;12.60;99.90
38359;DHT22;42072;48.044;14.416;2024-03-02T14:01:01;12.90;99.90
38359;DHT22;42072;48.044;14.416;2024-03-02T14:03:31;12.80;99.90
38359;DHT22;42072;48.044;14.416;2024-03-02T14:05:58;12.90;99.90
38359;DHT22;42072;48.044;14.416;2024-03-02T14:08:25;12.80;99.90
38359;DHT22;42072;48.044;14.416;2024-03-02T14:10:53;12.90;99.90
38359;DHT22;42072;48.044;14.416;2024-03-02T14:13:21;12.90;99.90
38359;DHT22;42072;48.044;14.416;2024-03-02T14:15:49;12.90;99.90
38359;DHT22;42072;48.044;14.416;2024-03-02T14:18:16;13.00;99.90
38359;DHT22;42072;48.044;14.416;2024-03-02T14:20:43;12.90;99.90
38359;DHT22;42072;48.044;14.416;2024-03-02T14:23:12;12.70;99.90
38359;DHT22;42072;48.044;14.416;2024-03-02T14:25:39;12.70;99.90
38359;DHT22;42072;48.044;14.416;2024-03-02T14:28:07;12.80;99.90
38359;DHT22;42072;48.044;14.416;2024-03-02T14:30:54;12.90;99.90
38359;DHT22;42072;48.044;14.416;2024-03-02T14:33:21;12.70;99.90
38359;DHT22;42072;48.044;14.416;2024-03-02T14:35:49;12.70;99.90
38359;DHT22;42072;48.044;14.416;2024-03-02T14:38:16;12.70;99.90
38359;DHT22;42072;48.044;14.416;2024-03-02T14:40:43;12.60;99.90
38359;DHT22;42072;48.044;14.416;2024-03-02T14:43:10;12.60;99.90
38359;DHT22;42072;48.044;14.416;2024-03-02T14:45:37;12.60;99.90
38359;DHT22;42072;48.044;14.416;2024-03-02T14:48:05;12.50;99.90
38359;DHT22;42072;48.044;14.416;2024-03-02T14:50:32;12.40;99.90
38359;DHT22;42072;48.044;14.416;2024-03-02T14:53:00;12.50;99.90
38359;DHT22;42072;48.044;14.416;2024-03-02T14:55:28;12.40;99.90
38359;DHT22;42072;48.044;14.416;2024-03-02T14:57:55;12.40;99.90
38359;DHT22;42072;48.044;14.416;2024-03-02T15:00:22;12.50;99.90
38359;DHT22;42072;48.044;14.416;2024-03-02T15:02:49;12.40;99.90
38359;DHT22;42072;48.044;14.416;2024-03-02T15:05:17;12.40;99.90
38359;DHT22;42072;48.044;14.416;2024-03-02T15:07:44;12.40;99.90
38359;DHT22;42072;48.044;14.416;2024-03-02T15:10:11;12.30;99.90
38359;DHT22;42072;48.044;14.416;2024-03-02T15:12:38;12.30;99.90
38359;DHT22;42072;48.044;14.416;2024-03-02T15:15:06;12.40;99.90
38359;DHT22;42072;48.044;14.416;2024-03-02T15:17:33;12.30;99.90
38359;DHT22;42072;48.044;14.416;2024-03-02T15:20:00;12.40;99.90
38359;DHT22;42072;48.044;14.416;2024-03-02T15:22:28;12.20;99.90
38359;DHT22;42072;48.044;14.416;2024-03-02T15:24:55;12.10;99.90
38359;DHT22;42072;48.044;14.416;2024-03-02T15:27:22;12.10;99.90
38359;DHT22;42072;48.044;14.416;2024-03-02T15:29:49;12.20;99.90
38359;DHT22;42072;48.044;14.416;2024-03-02T15:32:17;12.20;99.90
38359;DHT22;42072;48.044;14.416;2024-03-02T15:34:44;12.10;99.90
38359;DHT22;42072;48.044;14.416;2024-03-02T15:37:12;12.00;99.90
38359;DHT22;42072;48.044;14.416;2024-03-02T15:39:39;11.80;99.90
38359;DHT22;42072;48.044;14.416;2024-03-02T15:42:06;11.80;99.90
38359;DHT22;42072;48.044;14.416;2024-03-02T15:44:33;11.70;1.00